Time;durP1;ratioP1;P1;durP2;ratioP2;P2;SDS_P1;SDS_P2;PMS_P1;PMS_P2;Temp;Humidity;BMP_temperature;BMP_pressure;BME280_temperature;BME280_humidity;BME280_pressure;Samples;Min_cycle;Max_cycle;Signal;HPM_P1;HPM_P2
2023/01/08 00:00:25;;;;;;;10.40;5.20;;;;;;;;;;5098007;28;20055;-83
2023/01/08 00:03:06;;;;;;;6.20;4.72;;;;;;;;;;5082323;28;20448;-82
2023/01/08 00:05:36;;;;;;;7.43;5.22;;;;;;;;;;5090923;28;20081;-84
2023/01/08 00:08:07;;;;;;;9.77;5.53;;;;;;;;;;5075367;28;20417;-84
2023/01/08 00:10:42;;;;;;;6.85;5.05;;;;;;;;;;5097898;28;20100;-83
2023/01/08 00:13:11;;;;;;;6.47;5.05;;;;;;;;;;5104626;28;20048;-83
2023/01/08 00:15:39;;;;;;;12.23;4.95;;;;;;;;;;5088068;28;20059;-83
2023/01/08 00:18:08;;;;;;;17.40;6.25;;;;;;;;;;5088616;28;20044;-82
2023/01/08 00:20:35;;;;;;;8.50;5.65;;;;;;;;;;5100985;28;20314;-84
2023/01/08 00:23:03;;;;;;;11.23;5.57;;;;;;;;;;5089739;28;20521;-83
2023/01/08 00:25:37;;;;;;;8.23;5.45;;;;;;;;;;5091379;28;20403;-81
2023/01/08 00:28:05;;;;;;;8.25;5.45;;;;;;;;;;5083779;28;20032;-82
2023/01/08 00:30:32;;;;;;;9.05;6.32;;;;;;;;;;5098334;28;20040;-82
2023/01/08 00:33:00;;;;;;;8.77;5.22;;;;;;;;;;5095404;28;20056;-82
2023/01/08 00:35:27;;;;;;;10.27;6.22;;;;;;;;;;5093899;28;20080;-82
2023/01/08 00:37:54;;;;;;;6.05;5.32;;;;;;;;;;5063809;28;20036;-84
2023/01/08 00:40:23;;;;;;;5.50;5.00;;;;;;;;;;5086429;28;20074;-83
2023/01/08 00:42:56;;;;;;;7.85;5.63;;;;;;;;;;5097644;28;20467;-83
2023/01/08 00:45:23;;;;;;;5.32;4.63;;;;;;;;;;5067907;28;20043;-83
2023/01/08 00:47:51;;;;;;;7.88;5.75;;;;;;;;;;5082774;28;20040;-82
2023/01/08 00:50:18;;;;;;;9.70;5.43;;;;;;;;;;5094630;28;20036;-83
2023/01/08 00:52:46;;;;;;;9.75;6.03;;;;;;;;;;5070869;28;20052;-82
2023/01/08 00:55:14;;;;;;;11.55;6.22;;;;;;;;;;5085233;28;20044;-82
2023/01/08 00:57:51;;;;;;;11.60;5.78;;;;;;;;;;5093863;22;21356;31
2023/01/08 01:00:19;;;;;;;7.05;5.05;;;;;;;;;;5058291;28;20297;-80
2023/01/08 01:02:46;;;;;;;6.07;5.00;;;;;;;;;;5049602;28;20075;-81
2023/01/08 01:05:15;;;;;;;7.07;5.15;;;;;;;;;;5036725;28;20051;-81
2023/01/08 01:07:44;;;;;;;6.80;4.80;;;;;;;;;;5028189;28;20046;-81
2023/01/08 01:10:13;;;;;;;13.02;5.88;;;;;;;;;;5032331;28;20038;-80
2023/01/08 01:12:41;;;;;;;9.40;5.22;;;;;;;;;;5034982;28;20535;-80
2023/01/08 01:15:11;;;;;;;15.88;5.20;;;;;;;;;;5034196;28;20055;-80
2023/01/08 01:17:39;;;;;;;6.47;5.18;;;;;;;;;;5033680;28;20084;-80
2023/01/08 01:20:08;;;;;;;12.13;5.22;;;;;;;;;;5032330;28;20426;-80
2023/01/08 01:22:36;;;;;;;7.40;4.82;;;;;;;;;;5038057;28;20516;-80
2023/01/08 01:25:04;;;;;;;13.52;6.05;;;;;;;;;;5034423;28;20041;-81
2023/01/08 01:27:33;;;;;;;11.15;5.20;;;;;;;;;;5032988;28;20041;-80
2023/01/08 01:30:01;;;;;;;6.82;5.25;;;;;;;;;;5040485;28;20473;-79
2023/01/08 01:32:29;;;;;;;6.00;5.13;;;;;;;;;;5039774;28;20044;-79
2023/01/08 01:34:56;;;;;;;14.23;5.82;;;;;;;;;;5049467;28;20059;-80
2023/01/08 01:37:24;;;;;;;11.55;5.80;;;;;;;;;;5042298;28;20046;-80
2023/01/08 01:39:51;;;;;;;10.35;5.13;;;;;;;;;;5046559;28;20112;-79
2023/01/08 01:45:26;;;;;;;21.20;5.03;;;;;;;;;;5046715;28;20037;-79
2023/01/08 01:47:54;;;;;;;6.75;4.85;;;;;;;;;;5030816;28;20415;-79
2023/01/08 01:50:30;;;;;;;10.43;5.20;;;;;;;;;;5027821;28;20038;-79
2023/01/08 01:53:01;;;;;;;5.50;4.18;;;;;;;;;;5033220;28;20111;-79
2023/01/08 01:55:28;;;;;;;9.80;4.13;;;;;;;;;;5027387;28;20140;-79
2023/01/08 01:58:11;;;;;;;4.68;3.97;;;;;;;;;;5027606;28;20045;-79
2023/01/08 02:00:39;;;;;;;11.23;4.75;;;;;;;;;;5028088;28;20049;-79
2023/01/08 02:03:07;;;;;;;8.75;4.50;;;;;;;;;;5037137;28;20048;-79
2023/01/08 02:05:40;;;;;;;7.13;4.22;;;;;;;;;;5037297;28;20041;-80
2023/01/08 02:08:12;;;;;;;6.22;4.20;;;;;;;;;;5039523;28;20345;-80
2023/01/08 02:10:45;;;;;;;5.95;3.92;;;;;;;;;;5036654;28;20377;-79
2023/01/08 02:13:34;;;;;;;5.47;3.85;;;;;;;;;;5023321;28;20049;-79
2023/01/08 02:16:11;;;;;;;9.13;5.40;;;;;;;;;;5028274;28;20139;-79
2023/01/08 02:18:44;;;;;;;10.30;4.90;;;;;;;;;;5022073;28;20103;-79
2023/01/08 02:21:14;;;;;;;13.13;5.10;;;;;;;;;;5050180;28;20084;-79
2023/01/08 02:24:00;;;;;;;6.00;4.05;;;;;;;;;;5035726;28;20402;-79
2023/01/08 02:26:32;;;;;;;8.90;4.72;;;;;;;;;;5049815;28;20087;-79
2023/01/08 02:29:03;;;;;;;8.32;6.53;;;;;;;;;;5038487;28;20084;-79
2023/01/08 02:31:32;;;;;;;5.35;4.50;;;;;;;;;;5025079;28;20045;-79
2023/01/08 02:33:59;;;;;;;4.78;4.38;;;;;;;;;;5028224;28;20434;-79
2023/01/08 02:36:33;;;;;;;6.78;4.43;;;;;;;;;;5032814;28;20092;-80
2023/01/08 02:39:08;;;;;;;7.25;4.30;;;;;;;;;;5026978;28;20061;-79
2023/01/08 02:41:43;;;;;;;6.65;5.07;;;;;;;;;;5035832;28;20037;-79
2023/01/08 02:44:17;;;;;;;5.50;4.72;;;;;;;;;;5031069;28;20116;-79
2023/01/08 02:46:44;;;;;;;6.93;4.22;;;;;;;;;;5030397;28;20099;-79
2023/01/08 02:49:13;;;;;;;6.97;4.45;;;;;;;;;;5021971;28;20045;-79
2023/01/08 02:51:42;;;;;;;5.55;4.57;;;;;;;;;;5022312;28;20045;-79
2023/01/08 02:54:15;;;;;;;7.93;4.70;;;;;;;;;;5026488;28;20053;-79
2023/01/08 02:56:49;;;;;;;4.78;4.38;;;;;;;;;;5025976;28;20049;-79
2023/01/08 02:59:17;;;;;;;8.30;5.30;;;;;;;;;;5035164;28;20053;-79
2023/01/08 03:01:44;;;;;;;10.88;5.70;;;;;;;;;;5041676;28;20041;-79
2023/01/08 03:04:17;;;;;;;5.78;4.72;;;;;;;;;;5026523;28;20050;-79
2023/01/08 03:06:45;;;;;;;6.60;5.53;;;;;;;;;;5020596;28;20045;-79
2023/01/08 03:09:12;;;;;;;5.28;4.68;;;;;;;;;;5036344;28;20517;-79
2023/01/08 03:11:58;;;;;;;5.10;4.57;;;;;;;;;;5036967;28;20045;-80
2023/01/08 03:14:36;;;;;;;5.72;5.07;;;;;;;;;;5033660;28;20042;-79
2023/01/08 03:17:07;;;;;;;6.47;4.75;;;;;;;;;;5036003;28;20053;-79
2023/01/08 03:19:40;;;;;;;6.55;5.20;;;;;;;;;;5056168;28;20037;-79
2023/01/08 03:22:09;;;;;;;5.30;4.78;;;;;;;;;;5041341;28;20048;-79
2023/01/08 03:24:37;;;;;;;5.72;5.15;;;;;;;;;;5047108;28;20088;-79
2023/01/08 03:27:07;;;;;;;6.88;5.68;;;;;;;;;;5040764;28;20052;-79
2023/01/08 03:29:35;;;;;;;7.72;5.28;;;;;;;;;;5042817;28;20068;-80
2023/01/08 03:32:05;;;;;;;9.15;5.97;;;;;;;;;;5036974;28;20037;-80
2023/01/08 03:34:34;;;;;;;6.47;5.20;;;;;;;;;;5041292;28;20049;-79
2023/01/08 03:37:04;;;;;;;8.15;5.15;;;;;;;;;;5034570;28;20064;-79
2023/01/08 03:39:36;;;;;;;5.43;4.93;;;;;;;;;;5030953;28;20811;-79
2023/01/08 03:42:06;;;;;;;11.20;5.85;;;;;;;;;;5029416;28;20056;-79
2023/01/08 03:44:33;;;;;;;5.53;5.03;;;;;;;;;;5031233;28;20124;-79
2023/01/08 03:47:01;;;;;;;6.95;5.22;;;;;;;;;;5030483;28;20717;-79
2023/01/08 03:49:29;;;;;;;7.35;4.78;;;;;;;;;;5031995;28;20083;-79
2023/01/08 03:51:56;;;;;;;6.97;5.13;;;;;;;;;;5041196;28;20422;-79
2023/01/08 03:54:28;;;;;;;11.05;5.75;;;;;;;;;;5031032;28;20060;-79
2023/01/08 03:56:55;;;;;;;5.47;4.97;;;;;;;;;;5031669;28;20052;-79
2023/01/08 03:59:22;;;;;;;16.10;6.85;;;;;;;;;;5031596;28;20056;-79
2023/01/08 04:01:50;;;;;;;7.38;5.78;;;;;;;;;;5030787;28;20053;-79
2023/01/08 04:04:17;;;;;;;18.90;17.13;;;;;;;;;;5030530;28;20104;-79
2023/01/08 04:06:45;;;;;;;7.88;5.38;;;;;;;;;;5033330;28;20041;-79
2023/01/08 04:09:12;;;;;;;9.82;5.15;;;;;;;;;;5040296;28;20049;-79
2023/01/08 04:11:40;;;;;;;9.57;5.72;;;;;;;;;;5034244;28;20507;-80
2023/01/08 04:14:07;;;;;;;7.93;5.63;;;;;;;;;;5041502;28;20056;-79
2023/01/08 04:16:34;;;;;;;12.25;4.90;;;;;;;;;;5042176;28;20442;-79
2023/01/08 04:19:02;;;;;;;9.70;5.25;;;;;;;;;;5038098;28;20254;-79
2023/01/08 04:21:29;;;;;;;7.35;5.53;;;;;;;;;;5027431;28;20068;-79
2023/01/08 04:23:56;;;;;;;8.27;5.60;;;;;;;;;;5040922;28;20045;-79
2023/01/08 04:26:24;;;;;;;5.93;5.32;;;;;;;;;;5030298;28;20060;-79
2023/01/08 04:28:51;;;;;;;9.30;4.78;;;;;;;;;;5034651;28;20049;-79
2023/01/08 04:31:18;;;;;;;12.80;6.03;;;;;;;;;;5036826;28;20136;-79
2023/01/08 04:33:46;;;;;;;7.38;4.22;;;;;;;;;;5028712;28;20064;-79
2023/01/08 04:36:14;;;;;;;8.55;6.20;;;;;;;;;;5026269;28;20050;-79
2023/01/08 04:38:41;;;;;;;6.43;5.57;;;;;;;;;;5040553;28;20119;-79
2023/01/08 04:41:09;;;;;;;5.28;4.78;;;;;;;;;;5049848;28;20454;-79
2023/01/08 04:43:36;;;;;;;8.95;5.93;;;;;;;;;;5037654;28;20048;-79
2023/01/08 04:46:06;;;;;;;7.40;5.75;;;;;;;;;;5048954;28;20072;-80
2023/01/08 04:48:34;;;;;;;10.43;5.57;;;;;;;;;;5043603;28;20786;-80
2023/01/08 04:51:02;;;;;;;6.43;5.53;;;;;;;;;;5040169;28;20080;-80
2023/01/08 04:53:30;;;;;;;7.70;5.50;;;;;;;;;;5034707;28;20049;-80
2023/01/08 04:56:02;;;;;;;8.82;5.32;;;;;;;;;;5035366;28;20116;-79
2023/01/08 04:58:29;;;;;;;6.75;5.90;;;;;;;;;;5031062;28;20479;-79
2023/01/08 05:00:56;;;;;;;6.45;5.75;;;;;;;;;;5038520;28;20096;-79
2023/01/08 05:03:24;;;;;;;8.90;6.72;;;;;;;;;;5028655;28;20080;-79
2023/01/08 05:05:51;;;;;;;8.45;5.53;;;;;;;;;;5028687;28;20561;-79
2023/01/08 05:08:19;;;;;;;6.82;5.18;;;;;;;;;;5032291;28;20049;-79
2023/01/08 05:10:46;;;;;;;10.32;9.32;;;;;;;;;;5029481;28;20045;-79
2023/01/08 05:13:13;;;;;;;10.77;7.05;;;;;;;;;;5032666;28;20471;-79
2023/01/08 05:15:40;;;;;;;8.68;5.88;;;;;;;;;;5028970;28;20056;-79
2023/01/08 05:18:09;;;;;;;7.13;5.20;;;;;;;;;;5028678;28;20045;-79
2023/01/08 05:20:36;;;;;;;8.52;5.90;;;;;;;;;;5035237;28;20124;-79
2023/01/08 05:23:03;;;;;;;9.10;6.65;;;;;;;;;;5033127;28;20064;-79
2023/01/08 05:25:30;;;;;;;7.97;5.63;;;;;;;;;;5042239;28;20049;-80
2023/01/08 05:27:58;;;;;;;8.77;6.00;;;;;;;;;;5048950;28;20176;-79
2023/01/08 05:30:25;;;;;;;8.60;6.63;;;;;;;;;;5036360;28;20045;-79
2023/01/08 05:32:53;;;;;;;9.55;6.30;;;;;;;;;;5028321;28;20050;-79
2023/01/08 05:35:20;;;;;;;12.07;7.45;;;;;;;;;;5030152;28;20506;-79
2023/01/08 05:37:47;;;;;;;14.98;6.45;;;;;;;;;;5029009;28;20042;-79
2023/01/08 05:40:15;;;;;;;8.60;6.30;;;;;;;;;;5041139;28;20049;-79
2023/01/08 05:42:42;;;;;;;15.13;7.10;;;;;;;;;;5037693;28;20045;-80
2023/01/08 05:45:10;;;;;;;16.73;7.15;;;;;;;;;;5036103;28;20057;-80
2023/01/08 05:47:37;;;;;;;12.10;7.43;;;;;;;;;;5036943;28;20048;-80
2023/01/08 05:50:04;;;;;;;12.85;7.80;;;;;;;;;;5033126;28;20045;-80
2023/01/08 05:52:32;;;;;;;19.20;9.05;;;;;;;;;;5025920;28;20045;-79
2023/01/08 05:54:59;;;;;;;14.77;8.10;;;;;;;;;;5033259;28;20061;-79
2023/01/08 05:57:26;;;;;;;13.38;8.10;;;;;;;;;;5045571;28;20140;-79
2023/01/08 05:59:54;;;;;;;12.00;7.63;;;;;;;;;;5027940;28;20492;-79
2023/01/08 06:02:21;;;;;;;11.13;7.00;;;;;;;;;;5025713;28;20073;-79
2023/01/08 06:04:48;;;;;;;12.00;7.15;;;;;;;;;;5041366;28;20118;-79
2023/01/08 06:07:16;;;;;;;11.75;7.03;;;;;;;;;;5027989;28;20045;-79
2023/01/08 06:09:43;;;;;;;13.27;8.00;;;;;;;;;;5034773;28;20152;-79
2023/01/08 06:12:10;;;;;;;11.60;7.47;;;;;;;;;;5025449;28;20037;-80
2023/01/08 06:14:38;;;;;;;13.80;8.35;;;;;;;;;;5034838;28;20049;-79
2023/01/08 06:17:05;;;;;;;13.50;8.07;;;;;;;;;;5049129;28;20115;-79
2023/01/08 06:19:33;;;;;;;11.07;7.47;;;;;;;;;;5040832;28;20060;-80
2023/01/08 06:22:00;;;;;;;10.48;7.10;;;;;;;;;;5040182;28;20046;-80
2023/01/08 06:24:27;;;;;;;12.40;8.32;;;;;;;;;;5048292;28;20059;-80
2023/01/08 06:26:54;;;;;;;10.45;7.40;;;;;;;;;;5026829;28;20053;-79
2023/01/08 06:29:22;;;;;;;14.93;8.15;;;;;;;;;;5030266;28;20049;-80
2023/01/08 06:31:49;;;;;;;12.35;8.73;;;;;;;;;;5039773;28;20045;-79
2023/01/08 06:34:16;;;;;;;10.30;7.03;;;;;;;;;;5038854;28;20049;-79
2023/01/08 06:36:44;;;;;;;14.52;9.07;;;;;;;;;;5028569;28;20481;-79
2023/01/08 06:39:12;;;;;;;10.85;8.63;;;;;;;;;;5033291;28;20052;-79
2023/01/08 06:41:39;;;;;;;12.40;8.35;;;;;;;;;;5028208;28;20079;-79
2023/01/08 06:44:06;;;;;;;11.48;8.80;;;;;;;;;;5036432;28;20037;-79
2023/01/08 06:46:38;;;;;;;13.02;10.00;;;;;;;;;;5036414;28;20037;-79
2023/01/08 06:49:06;;;;;;;11.05;8.43;;;;;;;;;;5042828;28;20069;-80
2023/01/08 06:51:34;;;;;;;16.02;12.35;;;;;;;;;;5033423;28;20407;-79
2023/01/08 06:54:01;;;;;;;13.23;8.38;;;;;;;;;;5034689;28;20123;-79
2023/01/08 06:56:29;;;;;;;8.07;7.13;;;;;;;;;;5057738;28;20411;-79
2023/01/08 06:58:56;;;;;;;9.57;7.75;;;;;;;;;;5029662;28;20581;-79
2023/01/08 07:01:23;;;;;;;9.15;7.22;;;;;;;;;;5033480;28;20123;-79
2023/01/08 07:03:51;;;;;;;7.75;6.93;;;;;;;;;;5040141;28;20049;-79
2023/01/08 07:06:20;;;;;;;10.48;8.15;;;;;;;;;;5039299;28;20513;-79
2023/01/08 07:08:47;;;;;;;10.00;7.53;;;;;;;;;;5032054;28;20919;-79
2023/01/08 07:11:15;;;;;;;15.40;9.10;;;;;;;;;;5034590;28;20045;-79
2023/01/08 07:13:42;;;;;;;9.60;7.85;;;;;;;;;;5036930;28;20053;-79
2023/01/08 07:16:11;;;;;;;10.98;9.27;;;;;;;;;;5034519;28;20114;-79
2023/01/08 07:18:39;;;;;;;11.95;8.95;;;;;;;;;;5046310;28;20167;-79
2023/01/08 07:21:07;;;;;;;15.23;8.55;;;;;;;;;;5015798;28;20044;-79
2023/01/08 07:23:35;;;;;;;13.15;8.90;;;;;;;;;;5038179;28;20052;-79
2023/01/08 07:26:03;;;;;;;12.15;8.88;;;;;;;;;;5030088;28;20056;-80
2023/01/08 07:28:31;;;;;;;12.35;8.43;;;;;;;;;;5038007;28;20046;-79
2023/01/08 07:31:02;;;;;;;12.50;9.30;;;;;;;;;;5037627;28;20041;-80
2023/01/08 07:33:29;;;;;;;11.88;8.23;;;;;;;;;;5025707;28;20128;-79
2023/01/08 07:35:57;;;;;;;9.95;7.57;;;;;;;;;;5039417;28;20057;-79
2023/01/08 07:38:24;;;;;;;10.18;8.27;;;;;;;;;;5021194;28;20099;-79
2023/01/08 07:40:52;;;;;;;10.55;8.50;;;;;;;;;;5033003;28;20523;-79
2023/01/08 07:43:20;;;;;;;9.57;7.80;;;;;;;;;;5033969;28;20054;-79
2023/01/08 07:45:47;;;;;;;13.40;8.63;;;;;;;;;;5051180;28;20048;-80
2023/01/08 07:48:15;;;;;;;11.10;8.25;;;;;;;;;;5043891;28;20190;-80
2023/01/08 07:50:43;;;;;;;8.63;6.90;;;;;;;;;;5032416;28;20048;-80
2023/01/08 07:53:11;;;;;;;13.05;8.50;;;;;;;;;;5045898;28;20071;-80
2023/01/08 07:55:39;;;;;;;10.38;7.60;;;;;;;;;;5037684;28;20845;-80
2023/01/08 07:58:10;;;;;;;10.23;8.23;;;;;;;;;;5052869;28;20375;-80
2023/01/08 08:00:38;;;;;;;14.60;8.77;;;;;;;;;;5038677;28;20057;-80
2023/01/08 08:03:06;;;;;;;9.30;7.20;;;;;;;;;;5029912;28;20411;-80
2023/01/08 08:05:34;;;;;;;11.73;8.27;;;;;;;;;;5041313;28;20049;-80
2023/01/08 08:08:01;;;;;;;9.23;7.13;;;;;;;;;;5039208;28;20037;-80
2023/01/08 08:10:29;;;;;;;8.95;7.93;;;;;;;;;;5034040;28;20067;-80
2023/01/08 08:12:56;;;;;;;12.18;8.57;;;;;;;;;;5025853;28;20052;-80
2023/01/08 08:15:23;;;;;;;12.23;8.88;;;;;;;;;;5048523;28;20076;-80
2023/01/08 08:17:51;;;;;;;11.63;9.00;;;;;;;;;;5041806;28;20431;-81
2023/01/08 08:20:18;;;;;;;11.77;8.73;;;;;;;;;;5039256;28;20085;-81
2023/01/08 08:22:46;;;;;;;12.23;8.77;;;;;;;;;;5034391;28;20113;-81
2023/01/08 08:25:14;;;;;;;11.00;8.07;;;;;;;;;;5034898;28;20470;-81
2023/01/08 08:27:42;;;;;;;11.82;8.77;;;;;;;;;;5043117;28;20060;-81
2023/01/08 08:30:10;;;;;;;10.98;8.82;;;;;;;;;;5025170;28;20041;-81
2023/01/08 08:32:37;;;;;;;13.10;8.40;;;;;;;;;;5037777;28;20045;-81
2023/01/08 08:35:05;;;;;;;11.43;8.38;;;;;;;;;;5036540;28;20540;-81
2023/01/08 08:37:32;;;;;;;14.73;10.60;;;;;;;;;;5042213;28;20040;-81
2023/01/08 08:40:00;;;;;;;11.43;9.18;;;;;;;;;;5027318;28;20135;-80
2023/01/08 08:42:27;;;;;;;11.82;9.07;;;;;;;;;;5028515;28;20043;-81
2023/01/08 08:44:54;;;;;;;10.85;8.20;;;;;;;;;;5026067;28;21281;-81
2023/01/08 08:47:22;;;;;;;11.88;9.05;;;;;;;;;;5030598;28;20141;-81
2023/01/08 08:49:49;;;;;;;12.45;8.68;;;;;;;;;;5030623;28;20458;-81
2023/01/08 08:52:17;;;;;;;11.40;9.02;;;;;;;;;;5037004;28;20065;-81
2023/01/08 08:54:44;;;;;;;14.48;8.95;;;;;;;;;;5033836;28;20087;-81
2023/01/08 08:57:11;;;;;;;13.82;9.20;;;;;;;;;;5032782;28;20059;-81
2023/01/08 08:59:39;;;;;;;10.95;8.23;;;;;;;;;;5036492;28;20053;-81
2023/01/08 09:02:06;;;;;;;16.60;9.15;;;;;;;;;;5030987;28;20042;-81
2023/01/08 09:04:34;;;;;;;12.27;9.77;;;;;;;;;;5034786;28;20045;-81
2023/01/08 09:07:01;;;;;;;15.18;10.45;;;;;;;;;;5031289;28;20049;-81
2023/01/08 09:09:29;;;;;;;12.90;9.20;;;;;;;;;;5041263;28;20125;-81
2023/01/08 09:11:56;;;;;;;12.45;8.40;;;;;;;;;;5030205;28;20056;-78
2023/01/08 09:14:24;;;;;;;16.42;10.57;;;;;;;;;;5024654;28;20065;-78
2023/01/08 09:16:55;;;;;;;14.07;9.77;;;;;;;;;;5022998;28;20199;-78
2023/01/08 09:19:37;;;;;;;12.18;9.20;;;;;;;;;;5011723;28;20539;-79
2023/01/08 09:22:04;;;;;;;12.32;9.02;;;;;;;;;;5027795;28;20050;-78
2023/01/08 09:24:32;;;;;;;11.88;8.68;;;;;;;;;;5022196;28;20041;-79
2023/01/08 09:27:00;;;;;;;11.82;9.25;;;;;;;;;;5023519;28;20050;-80
2023/01/08 09:29:27;;;;;;;14.95;9.85;;;;;;;;;;5034056;28;20048;-79
2023/01/08 09:31:56;;;;;;;12.27;8.93;;;;;;;;;;5039221;28;20052;-80
2023/01/08 09:34:23;;;;;;;13.95;9.57;;;;;;;;;;5032036;28;20522;-80
2023/01/08 09:36:51;;;;;;;12.40;9.60;;;;;;;;;;5028977;28;20050;-80
2023/01/08 09:39:18;;;;;;;12.60;8.98;;;;;;;;;;5027291;28;20314;-81
2023/01/08 09:41:47;;;;;;;12.30;9.52;;;;;;;;;;5031405;28;20099;-80
2023/01/08 09:44:15;;;;;;;13.77;9.82;;;;;;;;;;5031482;28;20135;-80
2023/01/08 09:46:43;;;;;;;14.32;9.80;;;;;;;;;;5024029;28;20044;-80
2023/01/08 09:49:15;;;;;;;13.63;9.13;;;;;;;;;;5041050;28;20076;-80
2023/01/08 09:51:42;;;;;;;13.50;9.98;;;;;;;;;;5017590;28;20407;-80
2023/01/08 09:54:12;;;;;;;11.02;8.43;;;;;;;;;;5043160;28;20044;-80
2023/01/08 09:56:40;;;;;;;12.82;9.77;;;;;;;;;;5023375;28;20061;-80
2023/01/08 09:59:12;;;;;;;13.30;9.82;;;;;;;;;;5010556;28;20436;-81
2023/01/08 10:01:39;;;;;;;;;;;;;;;;;;5025382;28;20045;-80
2023/01/08 10:04:15;;;;;;;13.30;8.95;;;;;;;;;;5027080;28;19927;-80
2023/01/08 10:06:51;;;;;;;13.65;9.68;;;;;;;;;;5026250;28;20096;-80
2023/01/08 10:09:21;;;;;;;16.27;9.30;;;;;;;;;;5026697;28;20049;-79
2023/01/08 10:11:49;;;;;;;12.38;9.38;;;;;;;;;;5026119;28;20379;-80
2023/01/08 10:14:20;;;;;;;16.92;9.57;;;;;;;;;;5031652;28;20041;-79
2023/01/08 10:16:50;;;;;;;14.68;10.07;;;;;;;;;;5032950;28;20116;-80
2023/01/08 10:19:18;;;;;;;16.92;10.75;;;;;;;;;;5051730;28;20091;-80
2023/01/08 10:21:45;;;;;;;15.40;10.63;;;;;;;;;;5035048;28;20045;-79
2023/01/08 10:24:12;;;;;;;14.10;10.15;;;;;;;;;;5036617;28;20041;-80
2023/01/08 10:26:40;;;;;;;15.25;9.63;;;;;;;;;;5031563;28;20042;-80
2023/01/08 10:29:07;;;;;;;16.38;10.90;;;;;;;;;;5040531;28;20045;-80
2023/01/08 10:31:38;;;;;;;13.27;9.65;;;;;;;;;;5048035;28;20077;-81
2023/01/08 10:34:09;;;;;;;14.75;10.05;;;;;;;;;;5041224;28;20171;-80
2023/01/08 10:36:40;;;;;;;14.68;10.30;;;;;;;;;;5052331;28;20104;-81
2023/01/08 10:39:18;;;;;;;13.98;10.30;;;;;;;;;;5030712;28;20337;-80
2023/01/08 10:41:47;;;;;;;15.18;9.73;;;;;;;;;;5043853;28;20065;-80
2023/01/08 10:44:16;;;;;;;15.23;11.20;;;;;;;;;;5034650;28;20675;-80
2023/01/08 10:46:47;;;;;;;14.02;9.63;;;;;;;;;;5037265;28;20037;-80
2023/01/08 10:49:17;;;;;;;16.02;10.75;;;;;;;;;;5041038;28;20079;-80
2023/01/08 10:51:52;;;;;;;15.52;10.88;;;;;;;;;;5038948;28;20100;-81
2023/01/08 10:54:31;;;;;;;15.70;10.55;;;;;;;;;;5029682;28;20128;-80
2023/01/08 10:56:59;;;;;;;18.67;11.70;;;;;;;;;;5036363;28;20061;-80
2023/01/08 10:59:29;;;;;;;18.50;11.48;;;;;;;;;;5033685;28;20099;-82
2023/01/08 11:01:58;;;;;;;17.98;12.18;;;;;;;;;;5043268;28;20108;-81
2023/01/08 11:04:33;;;;;;;18.10;13.75;;;;;;;;;;5040753;28;20096;-81
2023/01/08 11:07:02;;;;;;;19.13;12.23;;;;;;;;;;5050135;28;20041;-82
2023/01/08 11:09:32;;;;;;;20.10;12.98;;;;;;;;;;5026870;28;20045;-81
2023/01/08 11:12:00;;;;;;;24.83;15.30;;;;;;;;;;5032952;28;20056;-81
2023/01/08 11:14:29;;;;;;;20.98;14.15;;;;;;;;;;5041189;28;20057;-81
2023/01/08 11:16:58;;;;;;;21.48;13.50;;;;;;;;;;5031476;28;20503;-81
2023/01/08 11:19:27;;;;;;;21.10;13.55;;;;;;;;;;5036976;28;20057;-81
2023/01/08 11:22:15;;;;;;;27.20;15.98;;;;;;;;;;5037058;28;20053;-81
2023/01/08 11:24:43;;;;;;;23.15;14.27;;;;;;;;;;5032938;28;20041;-81
2023/01/08 11:27:20;;;;;;;24.80;14.57;;;;;;;;;;5037027;28;20499;-81
2023/01/08 11:29:52;;;;;;;21.25;14.50;;;;;;;;;;5032786;28;20432;-80
2023/01/08 11:32:20;;;;;;;;;;;;;;;;;;5025510;28;20079;-81
2023/01/08 11:34:47;;;;;;;20.30;13.07;;;;;;;;;;5044499;28;20702;-80
2023/01/08 11:37:20;;;;;;;22.17;12.30;;;;;;;;;;5026959;28;20041;-80
2023/01/08 11:39:47;;;;;;;17.90;11.35;;;;;;;;;;5036704;28;20160;-80
2023/01/08 11:42:18;;;;;;;16.88;10.90;;;;;;;;;;5028918;28;20056;-80
2023/01/08 11:44:45;;;;;;;17.25;11.15;;;;;;;;;;5038929;28;20041;-80
2023/01/08 11:47:13;;;;;;;18.95;12.23;;;;;;;;;;5045600;28;20303;-81
2023/01/08 11:49:45;;;;;;;18.95;11.30;;;;;;;;;;5029056;28;20049;-80
2023/01/08 11:52:31;;;;;;;17.92;11.98;;;;;;;;;;5033357;28;20047;-80
2023/01/08 11:55:10;;;;;;;23.83;14.45;;;;;;;;;;5047479;28;20072;-81
2023/01/08 11:57:59;;;;;;;22.95;13.88;;;;;;;;;;5051321;28;20044;-80
2023/01/08 12:00:41;;;;;;;20.05;12.40;;;;;;;;;;5027289;28;20065;-81
2023/01/08 12:03:28;;;;;;;18.83;12.60;;;;;;;;;;5026007;28;20535;-81
2023/01/08 12:05:56;;;;;;;22.42;13.20;;;;;;;;;;5026920;28;20084;-80
2023/01/08 12:08:28;;;;;;;19.73;11.77;;;;;;;;;;5033374;28;20072;-80
2023/01/08 12:11:01;;;;;;;19.98;12.05;;;;;;;;;;5045020;28;20049;-81
2023/01/08 12:13:38;;;;;;;18.02;10.70;;;;;;;;;;5032216;28;20457;-81
2023/01/08 12:16:21;;;;;;;20.67;13.18;;;;;;;;;;5029015;28;20544;-81
2023/01/08 12:19:01;;;;;;;18.77;11.43;;;;;;;;;;5034666;28;20725;-81
2023/01/08 12:21:31;;;;;;;20.80;15.90;;;;;;;;;;5032997;28;20061;-81
2023/01/08 12:24:04;;;;;;;19.50;13.48;;;;;;;;;;5031602;28;20041;-80
2023/01/08 12:26:50;;;;;;;21.50;12.88;;;;;;;;;;5047918;28;20048;-81
2023/01/08 12:29:20;;;;;;;21.35;13.90;;;;;;;;;;5027623;28;20041;-81
2023/01/08 12:32:14;;;;;;;22.33;13.13;;;;;;;;;;5027928;28;20075;-81
2023/01/08 12:34:41;;;;;;;20.75;12.55;;;;;;;;;;5019340;28;20083;-82
2023/01/08 12:37:20;;;;;;;19.88;12.80;;;;;;;;;;5036399;28;20069;-81
2023/01/08 12:40:01;;;;;;;18.02;11.93;;;;;;;;;;5034741;28;20041;-80
2023/01/08 12:42:30;;;;;;;20.80;13.15;;;;;;;;;;5021928;28;20081;-80
2023/01/08 12:44:59;;;;;;;20.55;11.90;;;;;;;;;;5016949;28;20042;-80
2023/01/08 12:47:29;;;;;;;19.40;13.05;;;;;;;;;;5020536;28;20094;-80
2023/01/08 12:50:02;;;;;;;19.17;13.93;;;;;;;;;;5027656;28;20068;-80
2023/01/08 12:52:39;;;;;;;20.50;13.18;;;;;;;;;;5027389;28;20037;-80
2023/01/08 12:55:15;;;;;;;19.75;12.40;;;;;;;;;;5024809;28;20049;-80
2023/01/08 12:57:47;;;;;;;16.65;11.63;;;;;;;;;;5025342;28;20056;-80
2023/01/08 13:00:14;;;;;;;;;;;;;;;;;;5026613;28;20056;-79
2023/01/08 13:03:00;;;;;;;18.52;13.02;;;;;;;;;;5030796;28;19921;-79
2023/01/08 13:05:28;;;;;;;18.85;12.05;;;;;;;;;;5039791;28;20045;-79
2023/01/08 13:08:03;;;;;;;17.60;12.93;;;;;;;;;;5034974;28;20053;-79
2023/01/08 13:10:31;;;;;;;19.42;13.00;;;;;;;;;;5026447;28;20054;-79
2023/01/08 13:13:00;;;;;;;16.10;11.50;;;;;;;;;;5030605;28;20065;-80
2023/01/08 13:15:31;;;;;;;20.50;13.13;;;;;;;;;;5039696;28;20107;-80
2023/01/08 13:18:05;;;;;;;24.13;16.93;;;;;;;;;;5049211;28;20060;-80
2023/01/08 13:20:33;;;;;;;21.33;13.32;;;;;;;;;;5056310;28;20073;-80
2023/01/08 13:23:04;;;;;;;20.17;12.98;;;;;;;;;;5030731;28;20048;-80
2023/01/08 13:25:32;;;;;;;20.13;14.10;;;;;;;;;;5028496;28;20103;-80
2023/01/08 13:28:00;;;;;;;17.23;12.70;;;;;;;;;;5045611;28;20507;-80
2023/01/08 13:30:37;;;;;;;17.75;12.43;;;;;;;;;;5030324;28;20072;-80
2023/01/08 13:33:25;;;;;;;17.92;12.55;;;;;;;;;;5028899;28;20053;-80
2023/01/08 13:36:06;;;;;;;19.65;13.10;;;;;;;;;;5029001;28;20045;-80
2023/01/08 13:38:34;;;;;;;16.25;12.27;;;;;;;;;;5041299;28;20087;-80
2023/01/08 13:41:01;;;;;;;15.85;11.93;;;;;;;;;;5049188;28;20423;-80
2023/01/08 13:43:30;;;;;;;16.15;12.43;;;;;;;;;;5047968;28;20049;-80
2023/01/08 13:46:01;;;;;;;17.48;13.27;;;;;;;;;;5040115;28;20042;-80
2023/01/08 13:48:36;;;;;;;20.98;13.35;;;;;;;;;;5042406;28;20419;-80
2023/01/08 13:51:04;;;;;;;22.77;13.20;;;;;;;;;;5034433;28;20188;-80
2023/01/08 13:53:33;;;;;;;16.38;12.23;;;;;;;;;;5029033;28;20048;-80
2023/01/08 13:56:03;;;;;;;24.30;15.45;;;;;;;;;;5039533;28;20054;-80
2023/01/08 13:58:38;;;;;;;19.55;12.70;;;;;;;;;;5025541;28;20041;-80
2023/01/08 14:01:07;;;;;;;23.90;13.00;;;;;;;;;;5027197;28;20803;-81
2023/01/08 14:03:36;;;;;;;29.77;18.88;;;;;;;;;;5028466;28;20046;-80
2023/01/08 14:06:22;;;;;;;20.90;14.18;;;;;;;;;;5032170;28;20051;-81
2023/01/08 14:08:57;;;;;;;27.50;16.25;;;;;;;;;;5065375;28;20037;-81
2023/01/08 14:11:28;;;;;;;28.63;18.02;;;;;;;;;;5048419;28;20105;-80
2023/01/08 14:13:56;;;;;;;25.70;15.13;;;;;;;;;;5039319;28;20053;-80
2023/01/08 14:16:23;;;;;;;19.08;13.02;;;;;;;;;;5034212;28;20053;-80
2023/01/08 14:18:52;;;;;;;17.38;12.60;;;;;;;;;;5029319;28;20061;-80
2023/01/08 14:21:22;;;;;;;20.00;12.57;;;;;;;;;;5033826;28;20049;-79
2023/01/08 14:23:52;;;;;;;19.27;12.80;;;;;;;;;;5040573;28;20045;-79
2023/01/08 14:26:29;;;;;;;17.90;11.95;;;;;;;;;;5049326;28;20497;-79
2023/01/08 14:28:57;;;;;;;19.65;12.60;;;;;;;;;;5049816;28;20140;-80
2023/01/08 14:31:25;;;;;;;18.23;13.00;;;;;;;;;;5039748;28;20053;-79
2023/01/08 14:33:53;;;;;;;15.55;12.00;;;;;;;;;;5031509;28;20077;-80
2023/01/08 14:36:21;;;;;;;19.42;12.27;;;;;;;;;;5034083;28;20061;-80
2023/01/08 14:38:49;;;;;;;18.38;13.55;;;;;;;;;;5045391;28;20103;-80
2023/01/08 14:41:20;;;;;;;19.17;13.23;;;;;;;;;;5044246;28;20072;-80
2023/01/08 14:43:49;;;;;;;18.02;12.88;;;;;;;;;;5051917;28;20048;-80
2023/01/08 14:46:21;;;;;;;17.52;12.90;;;;;;;;;;5049737;28;20053;-79
2023/01/08 14:48:49;;;;;;;17.17;12.13;;;;;;;;;;5050101;28;20071;-79